^^
Grace C. Lehan Memorial Weather Station Historical Data
Daily Summary for August 12, 2021 Units:  English    Metric   Both
Daily Weekly Monthly Yearly
  High: Low: Average:
Temperature: 43.6 °F 24.3 °F 33.4 °F
Dew Point: 30.8 °F 21.6 °F 25.8 °F
Humidity: 91% 55.1% 75%
Wind Speed: 6.1mph 0mph 0.7mph
Wind Gust: 16mph - -
Wind- - NW
Pressure: 30.13 in 30.05 in -
Precipitation: 0.00 in    
 
 
Tabular Data for August 12, 2021
Time Temperature Dew Point Pressure Wind Wind Speed Wind Gust Humidity Rainfall Rate (Hourly) solar
00:04 29.1 °F 24.3 °F 30.11 in Calm     82% 0.00 in 0 W/m2
00:09 28.9 °F 24.1 °F 30.11 in Calm     82% 0.00 in 0 W/m2
00:14 28.8 °F 24 °F 30.11 in Calm     82.3% 0.00 in 0 W/m2
00:19 28.8 °F 24.3 °F 30.11 in Calm     83% 0.00 in 0 W/m2
00:24 28.8 °F 24.3 °F 30.11 in Calm     83% 0.00 in 0 W/m2
00:29 28.9 °F 24.4 °F 30.11 in Calm     83% 0.00 in 0 W/m2
00:34 28.9 °F 24.4 °F 30.11 in Calm     83% 0.00 in 0 W/m2
00:39 28.9 °F 24.4 °F 30.11 in Calm     83% 0.00 in 0 W/m2
00:44 28.9 °F 24.4 °F 30.11 in Calm     83% 0.00 in 0 W/m2
00:49 28.8 °F 24.3 °F 30.11 in Calm     83% 0.00 in 0 W/m2
00:54 28.7 °F 24.2 °F 30.11 in Calm     83% 0.00 in 0 W/m2
00:59 28.6 °F 24.1 °F 30.10 in Calm     83% 0.00 in 0 W/m2
01:04 28.5 °F 24 °F 30.10 in Calm     83% 0.00 in 0 W/m2
01:09 28.4 °F 23.9 °F 30.10 in Calm     83% 0.00 in 0 W/m2
01:14 28.3 °F 23.8 °F 30.10 in Calm     83% 0.00 in 0 W/m2
01:19 28.2 °F 24 °F 30.10 in Calm     84% 0.00 in 0 W/m2
01:24 28.1 °F 23.9 °F 30.10 in Calm     84% 0.00 in 0 W/m2
01:29 28 °F 23.8 °F 30.10 in Calm     84% 0.00 in 0 W/m2
01:34 27.9 °F 23.7 °F 30.11 in Calm     84% 0.00 in 0 W/m2
01:39 27.8 °F 23.6 °F 30.10 in Calm     84% 0.00 in 0 W/m2
01:44 27.6 °F 23.4 °F 30.10 in Calm     84% 0.00 in 0 W/m2
01:49 27.5 °F 23.3 °F 30.11 in Calm     84% 0.00 in 0 W/m2
01:54 27.4 °F 23.2 °F 30.11 in Calm     84% 0.00 in 0 W/m2
01:59 27.2 °F 23.1 °F 30.10 in Calm     84% 0.00 in 0 W/m2
02:04 27.1 °F 23.2 °F 30.11 in Calm     84.8% 0.00 in 0 W/m2
02:09 27.1 °F 23.2 °F 30.10 in Calm     85% 0.00 in 0 W/m2
02:14 27.1 °F 23.2 °F 30.10 in WNW 0.2 mph 2 mph 85% 0.00 in 0 W/m2
02:19 27.1 °F 23.4 °F 30.10 in WNW 0.1 mph 2 mph 85.9% 0.00 in 0 W/m2
02:24 27.1 °F 23.5 °F 30.10 in Calm   2 mph 86% 0.00 in 0 W/m2
02:29 27.1 °F 23.5 °F 30.10 in Calm   2 mph 86% 0.00 in 0 W/m2
02:34 27.1 °F 23.5 °F 30.10 in Calm   2 mph 86% 0.00 in 0 W/m2
02:39 27 °F 23.4 °F 30.10 in Calm     86% 0.00 in 0 W/m2
02:44 27 °F 23.4 °F 30.10 in Calm     86% 0.00 in 0 W/m2
02:49 27.1 °F 23.5 °F 30.10 in Calm     86% 0.00 in 0 W/m2
02:54 27.1 °F 23.5 °F 30.09 in Calm     86% 0.00 in 0 W/m2
02:59 27.2 °F 23.7 °F 30.09 in Calm     86.6% 0.00 in 0 W/m2
03:04 27.2 °F 23.6 °F 30.09 in Calm     86% 0.00 in 0 W/m2
03:09 27.2 °F 23.6 °F 30.09 in Calm     86% 0.00 in 0 W/m2
03:14 27.1 °F 23.5 °F 30.09 in Calm     86% 0.00 in 0 W/m2
03:19 26.9 °F 23.3 °F 30.09 in Calm     86% 0.00 in 0 W/m2
03:24 26.7 °F 22.9 °F 30.08 in Calm     85.3% 0.00 in 0 W/m2
03:29 26.5 °F 22.8 °F 30.09 in Calm     86% 0.00 in 0 W/m2
03:34 26.3 °F 22.7 °F 30.08 in Calm     86.1% 0.00 in 0 W/m2
03:39 26.2 °F 22.9 °F 30.09 in Calm     87% 0.00 in 0 W/m2
03:44 26.3 °F 22.9 °F 30.08 in Calm     87% 0.00 in 0 W/m2
03:49 26.3 °F 23 °F 30.08 in Calm     87.1% 0.00 in 0 W/m2
03:54 26.3 °F 23.2 °F 30.08 in Calm     88% 0.00 in 0 W/m2
03:59 26.3 °F 23.1 °F 30.08 in Calm     87.6% 0.00 in 0 W/m2
04:04 26.2 °F 22.9 °F 30.08 in Calm     87% 0.00 in 0 W/m2
04:09 26.2 °F 22.9 °F 30.08 in Calm     87.2% 0.00 in 0 W/m2
04:14 26.2 °F 23.1 °F 30.08 in Calm     88% 0.00 in 0 W/m2
04:19 26.2 °F 23.1 °F 30.08 in Calm     88% 0.00 in 0 W/m2
04:24 26.2 °F 23.2 °F 30.08 in Calm     88% 0.00 in 0 W/m2
04:29 26.4 °F 23.3 °F 30.08 in Calm     88% 0.00 in 0 W/m2
04:34 26.5 °F 23.4 °F 30.08 in Calm     88% 0.00 in 0 W/m2
04:39 26.5 °F 23.4 °F 30.08 in Calm     88% 0.00 in 0 W/m2
04:44 26.6 °F 23.5 °F 30.08 in Calm     88% 0.00 in 0 W/m2
04:49 26.6 °F 23.5 °F 30.08 in Calm     88% 0.00 in 0 W/m2
04:54 26.5 °F 23.5 °F 30.08 in Calm     88% 0.00 in 0 W/m2
04:59 26.4 °F 23 °F 30.08 in WNW 0.1 mph 3 mph 87% 0.00 in 0 W/m2
05:04 26.2 °F 22.9 °F 30.08 in WNW 0.1 mph 3 mph 87% 0.00 in 0 W/m2
05:09 25.9 °F 22.6 °F 30.08 in Calm   2 mph 87% 0.00 in 0 W/m2
05:14 25.7 °F 22.4 °F 30.08 in Calm   2 mph 87% 0.00 in 0 W/m2
05:19 25.6 °F 22.3 °F 30.08 in Calm   2 mph 87% 0.00 in 0 W/m2
05:24 25.6 °F 22.5 °F 30.09 in Calm   2 mph 87.7% 0.00 in 0 W/m2
05:29 25.5 °F 22.5 °F 30.08 in Calm   2 mph 88% 0.00 in 0 W/m2
05:34 25.4 °F 22.4 °F 30.08 in Calm   2 mph 88% 0.00 in 0 W/m2
05:39 25.4 °F 22.4 °F 30.08 in Calm     88% 0.00 in 0 W/m2
05:44 25.5 °F 22.4 °F 30.08 in WNW 0.1 mph 1 mph 88% 0.00 in 0 W/m2
05:49 25.4 °F 22.4 °F 30.09 in Calm   1 mph 88% 0.00 in 0 W/m2
05:53 25.3 °F 22.3 °F 30.09 in Calm   1 mph 88% 0.00 in 0 W/m2
05:59 25.2 °F 22.2 °F 30.09 in Calm   1 mph 88% 0.00 in 0 W/m2
06:04 25.2 °F 22.2 °F 30.08 in Calm   1 mph 88% 0.00 in 0 W/m2
06:09 25.2 °F 22.4 °F 30.09 in Calm     89% 0.00 in 0 W/m2
06:14 25.1 °F 22.3 °F 30.09 in Calm     89% 0.00 in 0 W/m2
06:19 25 °F 22.2 °F 30.09 in Calm     88.9% 0.00 in 0 W/m2
06:24 25 °F 21.9 °F 30.09 in Calm     88% 0.00 in 0 W/m2
06:29 24.9 °F 22 °F 30.10 in Calm     88.5% 0.00 in 0 W/m2
06:34 24.8 °F 22 °F 30.09 in Calm     89% 0.00 in 0 W/m2
06:39 24.8 °F 22 °F 30.09 in Calm     89% 0.00 in 0 W/m2
06:44 24.7 °F 21.9 °F 30.10 in Calm     89% 0.00 in 0 W/m2
06:49 24.6 °F 21.8 °F 30.10 in Calm     89% 0.00 in 0 W/m2
06:54 24.5 °F 21.7 °F 30.10 in Calm     89% 0.00 in 0 W/m2
06:59 24.4 °F 21.6 °F 30.10 in Calm     89% 0.00 in 0 W/m2
07:04 24.4 °F 21.6 °F 30.10 in Calm     89% 0.00 in 0 W/m2
07:09 24.3 °F 21.6 °F 30.10 in Calm     89% 0.00 in 5 W/m2
07:14 24.4 °F 21.6 °F 30.11 in Calm     89% 0.00 in 5 W/m2
07:19 24.4 °F 21.8 °F 30.10 in Calm     89.4% 0.00 in 5 W/m2
07:24 24.5 °F 22 °F 30.10 in Calm     90% 0.00 in 11 W/m2
07:29 24.6 °F 22.1 °F 30.10 in Calm     90% 0.00 in 12 W/m2
07:34 24.7 °F 22.2 °F 30.10 in Calm     90% 0.00 in 16 W/m2
07:39 24.8 °F 22.3 °F 30.10 in Calm     90% 0.00 in 19 W/m2
07:44 24.9 °F 22.4 °F 30.10 in Calm     90% 0.00 in 32 W/m2
07:49 24.9 °F 22.4 °F 30.10 in Calm     90% 0.00 in 40 W/m2
07:54 25 °F 22.5 °F 30.10 in Calm     90% 0.00 in 40 W/m2
07:59 25.1 °F 22.6 °F 30.10 in Calm     90% 0.00 in 40 W/m2
08:04 25.4 °F 23 °F 30.11 in Calm     90.8% 0.00 in 46 W/m2
08:09 25.6 °F 23.3 °F 30.11 in Calm     91% 0.00 in 46 W/m2
08:14 25.8 °F 23.6 °F 30.11 in Calm     91% 0.00 in 46 W/m2
08:19 26 °F 23.7 °F 30.11 in Calm     90.9% 0.00 in 49 W/m2
08:24 26.1 °F 23.6 °F 30.11 in Calm     90% 0.00 in 56 W/m2
08:29 26.3 °F 23.8 °F 30.11 in Calm     90% 0.00 in 67 W/m2
08:34 26.5 °F 24 °F 30.11 in Calm     90% 0.00 in 86 W/m2
08:39 26.8 °F 24.3 °F 30.11 in Calm     90% 0.00 in 97 W/m2
08:44 27.1 °F 24.6 °F 30.12 in Calm     90.1% 0.00 in 104 W/m2
08:49 27.4 °F 24.9 °F 30.12 in Calm     90% 0.00 in 114 W/m2
08:54 27.8 °F 25.2 °F 30.12 in Calm     90% 0.00 in 125 W/m2
08:59 28.2 °F 25.7 °F 30.12 in Calm     90% 0.00 in 149 W/m2
09:04 28.8 °F 26.2 °F 30.12 in Calm     90% 0.00 in 156 W/m2
09:09 29.5 °F 26.9 °F 30.13 in Calm     90% 0.00 in 183 W/m2
09:14 30.1 °F 27.6 °F 30.13 in Calm     90% 0.00 in 183 W/m2
09:19 30.8 °F 28 °F 30.13 in Calm     89.3% 0.00 in 216 W/m2
09:24 31.7 °F 28.8 °F 30.13 in Calm     89% 0.00 in 290 W/m2
09:29 32.6 °F 29.6 °F 30.13 in Calm     88.4% 0.00 in 290 W/m2
09:34 33.5 °F 29.9 °F 30.13 in WNW 0.1 mph 2 mph 86.5% 0.00 in 204 W/m2
09:39 34.3 °F 30 °F 30.12 in WNW 0.1 mph 2 mph 84.1% 0.00 in 243 W/m2
09:44 35.2 °F 30.3 °F 30.12 in WNW 0.3 mph 2 mph 82% 0.00 in 209 W/m2
09:49 36.1 °F 30.4 °F 30.12 in WNW 0.5 mph 3 mph 79.8% 0.00 in 192 W/m2
09:54 36.8 °F 30.6 °F 30.12 in WNW 0.7 mph 4 mph 77.9% 0.00 in 197 W/m2
09:59 37.4 °F 30.5 °F 30.12 in WNW 1.6 mph 5 mph 75.8% 0.00 in 213 W/m2
10:04 38 °F 30.6 °F 30.12 in NW 0.7 mph 5 mph 74.4% 0.00 in 199 W/m2
10:09 38.5 °F 30.8 °F 30.12 in NW 3.8 mph 10 mph 73.6% 0.00 in 213 W/m2
10:14 39 °F 30.3 °F 30.12 in NW 3.1 mph 10 mph 70.5% 0.00 in 244 W/m2
10:19 39.5 °F 30.4 °F 30.12 in NNW 2.8 mph 10 mph 69.8% 0.00 in 206 W/m2
10:24 39.7 °F 29.9 °F 30.12 in NW 2.4 mph 10 mph 67.6% 0.00 in 229 W/m2
10:29 39.8 °F 30 °F 30.12 in North 2.4 mph 10 mph 67.6% 0.00 in 221 W/m2
10:34 40.1 °F 30.1 °F 30.12 in NNW 1.3 mph 10 mph 67.3% 0.00 in 190 W/m2
10:39 40.3 °F 30.2 °F 30.11 in North 0.8 mph 5 mph 66.9% 0.00 in 223 W/m2
10:44 40.4 °F 30.1 °F 30.11 in NNW 2 mph 5 mph 66.4% 0.00 in 279 W/m2
10:49 40.6 °F 30.1 °F 30.11 in NNW 3.6 mph 11 mph 65.7% 0.00 in 258 W/m2
10:54 40.6 °F 29.6 °F 30.10 in NNE 2.7 mph 11 mph 64.5% 0.00 in 172 W/m2
10:59 40.6 °F 29.5 °F 30.10 in North 3 mph 11 mph 64.3% 0.00 in 172 W/m2
11:04 40.5 °F 29.5 °F 30.10 in NNW 1.9 mph 11 mph 64.5% 0.00 in 169 W/m2
11:09 40.4 °F 29.4 °F 30.10 in NW 2.1 mph 6 mph 64.5% 0.00 in 183 W/m2
11:10 40.4 °F 29.6 °F 30.10 in NW 1.8 mph 6 mph 65% 0.00 in 190 W/m2
11:30 41.2 °F 30 °F 30.09 in NW 2 mph 6 mph 64% 0.00 in 173 W/m2
12:04 41.7 °F 29.7 °F 30.09 in NNW 1.5 mph 6 mph 62.2% 0.00 in 202 W/m2
12:09 41.7 °F 29.3 °F 30.07 in WNW 1.2 mph 6 mph 61.2% 0.00 in 202 W/m2
12:14 41.8 °F 29.4 °F 30.07 in NW 4.2 mph 9 mph 61.2% 0.00 in 353 W/m2
12:19 41.9 °F 29.2 °F 30.08 in NW 4.7 mph 13 mph 60.5% 0.00 in 225 W/m2
12:24 41.8 °F 28.8 °F 30.08 in NW 3.2 mph 13 mph 59.5% 0.00 in 232 W/m2
12:29 41.8 °F 28.9 °F 30.08 in NNW 2.3 mph 13 mph 59.9% 0.00 in 195 W/m2
12:34 41.9 °F 29.1 °F 30.08 in NNW 2.1 mph 13 mph 60% 0.00 in 276 W/m2
12:39 42.2 °F 29.1 °F 30.08 in North 3.8 mph 10 mph 59.4% 0.00 in 313 W/m2
12:44 42.5 °F 29.4 °F 30.07 in NNW 2.9 mph 10 mph 59.4% 0.00 in 612 W/m2
12:49 43.1 °F 29.8 °F 30.07 in North 4.6 mph 12 mph 59.1% 0.00 in 478 W/m2
12:54 43.6 °F 29.4 °F 30.07 in NW 4.9 mph 12 mph 57% 0.00 in 281 W/m2
12:59 43.2 °F 28.7 °F 30.07 in NW 4.8 mph 16 mph 56.5% 0.00 in 309 W/m2
13:04 42.8 °F 28.7 °F 30.07 in NW 4.8 mph 16 mph 57.1% 0.00 in 244 W/m2
13:09 42.6 °F 28.5 °F 30.07 in NW 4.8 mph 12 mph 57% 0.00 in 239 W/m2
13:14 42.3 °F 28.3 °F 30.07 in NW 3.3 mph 12 mph 57.2% 0.00 in 287 W/m2
13:19 42.2 °F 28.2 °F 30.07 in WNW 4.8 mph 12 mph 57.3% 0.00 in 457 W/m2
13:24 42.3 °F 28.1 °F 30.06 in WNW 4.4 mph 12 mph 56.8% 0.00 in 320 W/m2
13:29 42.6 °F 28.3 °F 30.06 in NW 3.5 mph 12 mph 56.7% 0.00 in 285 W/m2
13:34 42.8 °F 28 °F 30.06 in WNW 5.6 mph 12 mph 55.6% 0.00 in 504 W/m2
13:39 42.6 °F 27.7 °F 30.06 in NW 6.1 mph 15 mph 55.1% 0.00 in 294 W/m2
13:44 42.4 °F 27.8 °F 30.06 in NW 4.8 mph 15 mph 56% 0.00 in 311 W/m2
13:49 42.3 °F 27.9 °F 30.07 in NW 4.3 mph 15 mph 56.2% 0.00 in 311 W/m2
13:54 42.1 °F 27.6 °F 30.07 in NW 4.2 mph 15 mph 56.2% 0.00 in 158 W/m2
13:59 41.8 °F 27.7 °F 30.06 in NW 5.6 mph 15 mph 57% 0.00 in 179 W/m2
14:04 41.5 °F 27.4 °F 30.06 in WNW 5.8 mph 15 mph 56.8% 0.00 in 158 W/m2
14:09 41.3 °F 27.6 °F 30.06 in WNW 2.8 mph 14 mph 57.9% 0.00 in 123 W/m2
14:14 41.1 °F 27.1 °F 30.06 in NW 3.2 mph 14 mph 57.1% 0.00 in 100 W/m2
14:19 40.9 °F 27.1 °F 30.06 in NNW 4.8 mph 14 mph 57.6% 0.00 in 142 W/m2
14:24 40.7 °F 27.1 °F 30.07 in NW 3.3 mph 14 mph 58.1% 0.00 in 213 W/m2
14:29 40.8 °F 27.4 °F 30.06 in NW 5.6 mph 14 mph 58.6% 0.00 in 262 W/m2
14:34 40.9 °F 26.9 °F 30.06 in NW 4 mph 14 mph 57% 0.00 in 70 W/m2
14:39 40.7 °F 26.8 °F 30.05 in NNW 0.9 mph 11 mph 57.3% 0.00 in 72 W/m2
14:44 40.5 °F 26.9 °F 30.06 in NW 3.3 mph 11 mph 58% 0.00 in 72 W/m2
14:49 40.2 °F 26.6 °F 30.06 in WNW 2 mph 11 mph 58% 0.00 in 67 W/m2
14:54 40 °F 26.4 °F 30.06 in NNW 3.3 mph 11 mph 58% 0.00 in 81 W/m2
14:59 39.8 °F 26.5 °F 30.06 in NW 3.5 mph 11 mph 58.5% 0.00 in 86 W/m2
15:04 39.8 °F 26.6 °F 30.06 in WNW 4 mph 11 mph 59% 0.00 in 84 W/m2
15:09 39.7 °F 26.6 °F 30.06 in NW 3.6 mph 11 mph 59% 0.00 in 63 W/m2
15:14 39.6 °F 26.5 °F 30.06 in NW 1.4 mph 11 mph 59% 0.00 in 44 W/m2
15:19 39.6 °F 26.6 °F 30.06 in NW 2.7 mph 11 mph 59.5% 0.00 in 49 W/m2
15:24 39.5 °F 26.7 °F 30.06 in NW 3.6 mph 11 mph 59.9% 0.00 in 53 W/m2
15:29 39.4 °F 26.7 °F 30.06 in NW 2.3 mph 11 mph 60% 0.00 in 58 W/m2
15:34 39.3 °F 26.6 °F 30.06 in WNW 2.6 mph 11 mph 60% 0.00 in 56 W/m2
15:39 39.3 °F 26.6 °F 30.06 in NW 0.7 mph 9 mph 60% 0.00 in 42 W/m2
15:44 39.3 °F 26.7 °F 30.06 in NNW 1 mph 9 mph 60.2% 0.00 in 42 W/m2
15:49 39.3 °F 27 °F 30.05 in NNW 1.2 mph 9 mph 61% 0.00 in 28 W/m2
15:54 39.2 °F 26.9 °F 30.06 in North 1.1 mph 9 mph 61% 0.00 in 28 W/m2
15:59 39.1 °F 26.8 °F 30.06 in NNW 0.5 mph 9 mph 61% 0.00 in 25 W/m2
16:04 39 °F 27 °F 30.06 in NNW 0.6 mph 2 mph 61.6% 0.00 in 26 W/m2
16:09 39 °F 26.9 °F 30.06 in Calm   2 mph 61.5% 0.00 in 28 W/m2
16:14 38.9 °F 27 °F 30.06 in NNW 0.8 mph 4 mph 62% 0.00 in 28 W/m2
16:19 38.9 °F 27 °F 30.06 in NNW 1.6 mph 5 mph 62% 0.00 in 21 W/m2
16:24 38.8 °F 26.9 °F 30.05 in North 0.7 mph 5 mph 62% 0.00 in 14 W/m2
16:29 38.6 °F 26.8 °F 30.05 in North 0.1 mph 5 mph 62% 0.00 in 11 W/m2
16:34 38.5 °F 26.7 °F 30.05 in NNW 0.9 mph 5 mph 62% 0.00 in 7 W/m2
16:39 38.4 °F 26.9 °F 30.05 in NNW 0.6 mph 5 mph 62.9% 0.00 in 0 W/m2
16:44 38.3 °F 26.8 °F 30.05 in NNW 0.1 mph 5 mph 63% 0.00 in 0 W/m2
16:49 38.1 °F 26.6 °F 30.05 in NNW 0.5 mph 5 mph 63% 0.00 in 0 W/m2
16:54 38 °F 26.5 °F 30.05 in Calm   5 mph 63% 0.00 in 0 W/m2
16:59 37.9 °F 26.5 °F 30.05 in Calm   5 mph 63.1% 0.00 in 0 W/m2
17:04 37.8 °F 26.6 °F 30.05 in Calm   5 mph 63.6% 0.00 in 0 W/m2
17:09 37.7 °F 26.6 °F 30.05 in Calm     64% 0.00 in 0 W/m2
17:14 37.6 °F 26.5 °F 30.05 in Calm     64% 0.00 in 0 W/m2
17:19 37.5 °F 26.5 °F 30.05 in Calm     64% 0.00 in 0 W/m2
17:24 37.4 °F 26.4 °F 30.05 in Calm     64% 0.00 in 0 W/m2
17:29 37.3 °F 26.3 °F 30.05 in Calm     64% 0.00 in 0 W/m2
17:34 37.3 °F 26.3 °F 30.05 in Calm     64.1% 0.00 in 0 W/m2
17:39 37.2 °F 26.5 °F 30.05 in Calm     65% 0.00 in 0 W/m2
17:44 37.1 °F 26.4 °F 30.05 in Calm     65% 0.00 in 0 W/m2
17:49 37 °F 26.4 °F 30.06 in Calm     65% 0.00 in 0 W/m2
17:54 36.9 °F 26.3 °F 30.06 in Calm     65% 0.00 in 0 W/m2
17:59 36.8 °F 26.6 °F 30.06 in Calm     66% 0.00 in 0 W/m2
18:04 36.8 °F 26.5 °F 30.06 in Calm     66% 0.00 in 0 W/m2
18:09 36.7 °F 26.4 °F 30.06 in Calm     66% 0.00 in 0 W/m2
18:14 36.7 °F 26.4 °F 30.06 in Calm     66% 0.00 in 0 W/m2
18:19 36.6 °F 26.4 °F 30.06 in Calm     66.1% 0.00 in 0 W/m2
18:24 36.6 °F 26.3 °F 30.06 in Calm     66% 0.00 in 0 W/m2
18:29 36.5 °F 26.5 °F 30.06 in Calm     66.5% 0.00 in 0 W/m2
18:34 36.5 °F 26.6 °F 30.06 in Calm     67% 0.00 in 0 W/m2
18:39 36.4 °F 26.5 °F 30.06 in Calm     67% 0.00 in 0 W/m2
18:44 36.4 °F 26.5 °F 30.06 in Calm     67% 0.00 in 0 W/m2
18:49 36.4 °F 26.5 °F 30.06 in Calm     67% 0.00 in 0 W/m2
18:54 36.3 °F 26.4 °F 30.06 in Calm     67% 0.00 in 0 W/m2
18:59 36.3 °F 26.4 °F 30.06 in Calm     67% 0.00 in 0 W/m2
19:04 36.3 °F 26.4 °F 30.06 in Calm     67% 0.00 in 0 W/m2
19:09 36.2 °F 26.5 °F 30.06 in Calm     67.4% 0.00 in 0 W/m2
19:14 36.2 °F 26.7 °F 30.06 in Calm     68% 0.00 in 0 W/m2
19:19 36.2 °F 26.6 °F 30.06 in Calm     68% 0.00 in 0 W/m2
19:24 36.1 °F 26.6 °F 30.06 in Calm     68% 0.00 in 0 W/m2
19:29 36.1 °F 26.6 °F 30.06 in Calm     68% 0.00 in 0 W/m2
19:34 36.1 °F 26.6 °F 30.05 in Calm     68% 0.00 in 0 W/m2
19:39 36 °F 26.6 °F 30.06 in Calm     68.2% 0.00 in 0 W/m2
19:44 36 °F 26.5 °F 30.06 in Calm     68% 0.00 in 0 W/m2
19:49 36 °F 26.8 °F 30.06 in Calm     69% 0.00 in 0 W/m2
19:54 36 °F 26.8 °F 30.06 in Calm     69% 0.00 in 0 W/m2
19:59 36 °F 26.9 °F 30.06 in Calm     69.2% 0.00 in 0 W/m2
20:00 35.9 °F 26.7 °F 30.06 in Calm     69% 0.00 in 0 W/m2
20:09 35.8 °F 26.6 °F 30.06 in Calm     69% 0.00 in 0 W/m2
20:14 35.7 °F 26.5 °F 30.06 in Calm     69% 0.00 in 0 W/m2
20:19 35.7 °F 26.7 °F 30.06 in Calm     69.6% 0.00 in 0 W/m2
20:24 35.6 °F 26.8 °F 30.05 in Calm     70% 0.00 in 0 W/m2
20:29 35.6 °F 26.8 °F 30.05 in Calm     70% 0.00 in 0 W/m2
20:34 35.6 °F 26.8 °F 30.05 in Calm     70% 0.00 in 0 W/m2
20:39 35.6 °F 26.8 °F 30.05 in Calm     70% 0.00 in 0 W/m2
20:44 35.6 °F 26.8 °F 30.06 in Calm     70% 0.00 in 0 W/m2
20:49 35.6 °F 26.8 °F 30.06 in Calm     70% 0.00 in 0 W/m2
20:54 35.6 °F 26.8 °F 30.06 in Calm     70% 0.00 in 0 W/m2
20:59 35.5 °F 26.9 °F 30.06 in Calm     70.6% 0.00 in 0 W/m2
21:04 35.5 °F 27 °F 30.06 in Calm     71% 0.00 in 0 W/m2
21:09 35.5 °F 26.8 °F 30.06 in Calm     70.3% 0.00 in 0 W/m2
21:14 35.5 °F 27 °F 30.06 in Calm     71% 0.00 in 0 W/m2
21:19 35.4 °F 27 °F 30.06 in Calm     71% 0.00 in 0 W/m2
21:24 35.4 °F 27.2 °F 30.06 in Calm     71.8% 0.00 in 0 W/m2
21:29 35.4 °F 27.3 °F 30.06 in Calm     72% 0.00 in 0 W/m2
21:34 35.4 °F 27 °F 30.06 in Calm     71.1% 0.00 in 0 W/m2
21:39 35.4 °F 27 °F 30.06 in Calm     71% 0.00 in 0 W/m2
21:44 35.4 °F 27 °F 30.06 in Calm     71% 0.00 in 0 W/m2
21:49 35.4 °F 27 °F 30.06 in Calm     71% 0.00 in 0 W/m2
21:54 35.4 °F 27 °F 30.06 in Calm     71% 0.00 in 0 W/m2
21:59 35.4 °F 27 °F 30.06 in Calm     71% 0.00 in 0 W/m2
22:04 35.4 °F 26.9 °F 30.07 in Calm     71% 0.00 in 0 W/m2
22:09 35.3 °F 26.9 °F 30.07 in Calm     71% 0.00 in 0 W/m2
22:14 35.3 °F 26.8 °F 30.07 in Calm     71% 0.00 in 0 W/m2
22:19 35.2 °F 26.8 °F 30.07 in Calm     71% 0.00 in 0 W/m2
22:24 35.1 °F 26.7 °F 30.07 in Calm     71% 0.00 in 0 W/m2
22:29 35.1 °F 26.7 °F 30.07 in Calm     71.3% 0.00 in 0 W/m2
22:34 35 °F 26.9 °F 30.07 in Calm     72% 0.00 in 0 W/m2
22:39 34.9 °F 26.8 °F 30.07 in Calm     72% 0.00 in 0 W/m2
22:44 34.9 °F 26.8 °F 30.07 in Calm     72% 0.00 in 0 W/m2
22:49 34.8 °F 26.7 °F 30.07 in Calm     72% 0.00 in 0 W/m2
22:54 34.8 °F 26.7 °F 30.07 in Calm     72% 0.00 in 0 W/m2
22:59 34.8 °F 26.7 °F 30.07 in Calm     72% 0.00 in 0 W/m2
23:00 34.8 °F 26.7 °F 30.07 in Calm     72% 0.00 in 0 W/m2
23:09 34.6 °F 26.9 °F 30.06 in Calm     73% 0.00 in 0 W/m2
23:14 34.6 °F 26.9 °F 30.06 in Calm     73% 0.00 in 0 W/m2
23:19 34.6 °F 26.9 °F 30.06 in Calm     73% 0.00 in 0 W/m2
23:24 34.6 °F 26.8 °F 30.06 in Calm     73% 0.00 in 0 W/m2
23:29 34.6 °F 26.8 °F 30.06 in Calm     73% 0.00 in 0 W/m2
23:34 34.5 °F 26.8 °F 30.05 in Calm     73% 0.00 in 0 W/m2
23:39 34.5 °F 26.8 °F 30.05 in Calm     73% 0.00 in 0 W/m2
23:44 34.6 °F 26.8 °F 30.05 in Calm     73% 0.00 in 0 W/m2
23:49 34.6 °F 26.9 °F 30.05 in Calm     73% 0.00 in 0 W/m2
23:54 34.7 °F 26.9 °F 30.05 in Calm     73% 0.00 in 0 W/m2
23:59 34.6 °F 26.9 °F 30.05 in Calm     73% 0.00 in 0 W/m2
Hartford County Weather
Compliments of Weather Underground - 4 mb